sensor_id;sensor_type;location;lat;lon;timestamp;temperature;humidity
41838;DHT22;27511;52.042;5.178;2023-03-01T00:01:30;4.90;99.90
41838;DHT22;27511;52.042;5.178;2023-03-01T00:03:56;4.90;99.90
41838;DHT22;27511;52.042;5.178;2023-03-01T00:06:22;4.90;99.90
41838;DHT22;27511;52.042;5.178;2023-03-01T00:08:48;4.90;99.90
41838;DHT22;27511;52.042;5.178;2023-03-01T00:13:39;4.80;99.90
41838;DHT22;27511;52.042;5.178;2023-03-01T00:16:05;4.80;99.90
41838;DHT22;27511;52.042;5.178;2023-03-01T00:18:31;4.80;99.90
41838;DHT22;27511;52.042;5.178;2023-03-01T00:20:57;4.90;99.90
41838;DHT22;27511;52.042;5.178;2023-03-01T00:23:22;4.90;99.90
41838;DHT22;27511;52.042;5.178;2023-03-01T00:25:48;4.80;99.90
41838;DHT22;27511;52.042;5.178;2023-03-01T00:28:13;4.80;99.90
41838;DHT22;27511;52.042;5.178;2023-03-01T00:30:39;4.80;99.90
41838;DHT22;27511;52.042;5.178;2023-03-01T00:33:04;4.80;99.90
41838;DHT22;27511;52.042;5.178;2023-03-01T00:35:31;4.80;99.90
41838;DHT22;27511;52.042;5.178;2023-03-01T00:37:57;4.80;99.90
41838;DHT22;27511;52.042;5.178;2023-03-01T00:40:30;4.70;99.90
41838;DHT22;27511;52.042;5.178;2023-03-01T00:42:56;4.70;99.90
41838;DHT22;27511;52.042;5.178;2023-03-01T01:28:07;4.60;99.90
41838;DHT22;27511;52.042;5.178;2023-03-01T01:30:32;4.40;99.90
41838;DHT22;27511;52.042;5.178;2023-03-01T01:32:58;4.40;99.90
41838;DHT22;27511;52.042;5.178;2023-03-01T01:35:23;4.30;99.90
41838;DHT22;27511;52.042;5.178;2023-03-01T01:37:49;4.30;99.90
41838;DHT22;27511;52.042;5.178;2023-03-01T01:40:15;4.30;99.90
41838;DHT22;27511;52.042;5.178;2023-03-01T01:42:40;4.30;99.90
41838;DHT22;27511;52.042;5.178;2023-03-01T01:45:26;4.30;99.90
41838;DHT22;27511;52.042;5.178;2023-03-01T01:47:52;4.30;99.90
41838;DHT22;27511;52.042;5.178;2023-03-01T01:50:18;4.40;99.90
41838;DHT22;27511;52.042;5.178;2023-03-01T01:52:44;4.30;99.90
41838;DHT22;27511;52.042;5.178;2023-03-01T01:55:14;4.30;99.90
41838;DHT22;27511;52.042;5.178;2023-03-01T01:57:42;4.40;99.90
41838;DHT22;27511;52.042;5.178;2023-03-01T02:00:10;4.30;99.90
41838;DHT22;27511;52.042;5.178;2023-03-01T02:02:36;4.30;99.90
41838;DHT22;27511;52.042;5.178;2023-03-01T02:05:45;4.30;99.90
41838;DHT22;27511;52.042;5.178;2023-03-01T02:07:51;4.30;99.90
41838;DHT22;27511;52.042;5.178;2023-03-01T02:10:16;4.30;99.90
41838;DHT22;27511;52.042;5.178;2023-03-01T02:12:42;4.30;99.90
41838;DHT22;27511;52.042;5.178;2023-03-01T02:15:08;4.50;99.90
41838;DHT22;27511;52.042;5.178;2023-03-01T02:17:34;4.30;99.90
41838;DHT22;27511;52.042;5.178;2023-03-01T02:20:34;4.20;99.90
41838;DHT22;27511;52.042;5.178;2023-03-01T02:22:51;4.30;99.90
41838;DHT22;27511;52.042;5.178;2023-03-01T02:25:28;4.20;99.90
41838;DHT22;27511;52.042;5.178;2023-03-01T02:30:44;4.10;99.90
41838;DHT22;27511;52.042;5.178;2023-03-01T02:33:29;4.20;99.90
41838;DHT22;27511;52.042;5.178;2023-03-01T02:36:01;4.20;99.90
41838;DHT22;27511;52.042;5.178;2023-03-01T02:38:28;4.10;99.90
41838;DHT22;27511;52.042;5.178;2023-03-01T02:40:54;4.10;99.90
41838;DHT22;27511;52.042;5.178;2023-03-01T02:43:19;4.10;99.90
41838;DHT22;27511;52.042;5.178;2023-03-01T02:45:50;4.10;99.90
41838;DHT22;27511;52.042;5.178;2023-03-01T02:48:17;4.10;99.90
41838;DHT22;27511;52.042;5.178;2023-03-01T02:50:55;4.10;99.90
41838;DHT22;27511;52.042;5.178;2023-03-01T02:56:12;4.10;99.90
41838;DHT22;27511;52.042;5.178;2023-03-01T02:58:41;4.00;99.90
41838;DHT22;27511;52.042;5.178;2023-03-01T03:01:10;4.10;99.90
41838;DHT22;27511;52.042;5.178;2023-03-01T03:03:36;4.00;99.90
41838;DHT22;27511;52.042;5.178;2023-03-01T03:06:01;3.90;99.90
41838;DHT22;27511;52.042;5.178;2023-03-01T03:08:27;4.00;99.90
41838;DHT22;27511;52.042;5.178;2023-03-01T03:10:52;4.00;99.90
41838;DHT22;27511;52.042;5.178;2023-03-01T03:13:18;3.90;99.90
41838;DHT22;27511;52.042;5.178;2023-03-01T03:15:44;3.90;99.90
41838;DHT22;27511;52.042;5.178;2023-03-01T03:18:14;3.90;99.90
41838;DHT22;27511;52.042;5.178;2023-03-01T03:20:40;3.90;99.90
41838;DHT22;27511;52.042;5.178;2023-03-01T03:23:06;3.80;99.90
41838;DHT22;27511;52.042;5.178;2023-03-01T03:25:32;3.80;99.90
41838;DHT22;27511;52.042;5.178;2023-03-01T03:27:57;3.90;99.90
41838;DHT22;27511;52.042;5.178;2023-03-01T03:30:30;3.70;99.90
41838;DHT22;27511;52.042;5.178;2023-03-01T03:32:56;3.70;99.90
41838;DHT22;27511;52.042;5.178;2023-03-01T03:37:48;3.80;99.90
41838;DHT22;27511;52.042;5.178;2023-03-01T03:41:11;3.80;99.90
41838;DHT22;27511;52.042;5.178;2023-03-01T03:43:18;3.80;99.90
41838;DHT22;27511;52.042;5.178;2023-03-01T03:45:44;3.70;99.90
41838;DHT22;27511;52.042;5.178;2023-03-01T03:48:10;3.70;99.90
41838;DHT22;27511;52.042;5.178;2023-03-01T03:50:37;3.60;99.90
41838;DHT22;27511;52.042;5.178;2023-03-01T03:53:03;3.40;99.90
41838;DHT22;27511;52.042;5.178;2023-03-01T03:55:29;3.40;99.90
41838;DHT22;27511;52.042;5.178;2023-03-01T03:57:59;3.40;99.90
41838;DHT22;27511;52.042;5.178;2023-03-01T04:00:27;3.40;99.90
41838;DHT22;27511;52.042;5.178;2023-03-01T04:02:53;3.40;99.90
41838;DHT22;27511;52.042;5.178;2023-03-01T04:05:21;3.40;99.90
41838;DHT22;27511;52.042;5.178;2023-03-01T04:07:47;3.40;99.90
41838;DHT22;27511;52.042;5.178;2023-03-01T04:10:14;3.40;99.90
41838;DHT22;27511;52.042;5.178;2023-03-01T04:12:40;3.30;99.90
41838;DHT22;27511;52.042;5.178;2023-03-01T04:15:06;3.30;99.90
41838;DHT22;27511;52.042;5.178;2023-03-01T04:17:41;3.30;99.90
41838;DHT22;27511;52.042;5.178;2023-03-01T04:20:11;3.20;99.90
41838;DHT22;27511;52.042;5.178;2023-03-01T04:22:37;3.20;99.90
41838;DHT22;27511;52.042;5.178;2023-03-01T04:25:03;3.10;99.90
41838;DHT22;27511;52.042;5.178;2023-03-01T04:27:30;3.10;99.90
41838;DHT22;27511;52.042;5.178;2023-03-01T04:29:55;3.10;99.90
41838;DHT22;27511;52.042;5.178;2023-03-01T04:32:21;3.10;99.90
41838;DHT22;27511;52.042;5.178;2023-03-01T04:34:46;3.00;99.90
41838;DHT22;27511;52.042;5.178;2023-03-01T04:37:12;3.00;99.90
41838;DHT22;27511;52.042;5.178;2023-03-01T04:39:37;3.10;99.90
41838;DHT22;27511;52.042;5.178;2023-03-01T04:42:14;3.00;99.90
41838;DHT22;27511;52.042;5.178;2023-03-01T04:44:39;3.00;99.90
41838;DHT22;27511;52.042;5.178;2023-03-01T04:47:05;3.00;99.90
41838;DHT22;27511;52.042;5.178;2023-03-01T04:49:30;3.00;99.90
41838;DHT22;27511;52.042;5.178;2023-03-01T04:51:56;2.90;99.90
41838;DHT22;27511;52.042;5.178;2023-03-01T04:54:27;2.80;99.90
41838;DHT22;27511;52.042;5.178;2023-03-01T04:56:53;2.70;99.90
41838;DHT22;27511;52.042;5.178;2023-03-01T04:59:18;2.80;99.90
41838;DHT22;27511;52.042;5.178;2023-03-01T05:01:51;2.80;99.90
41838;DHT22;27511;52.042;5.178;2023-03-01T05:04:17;2.80;99.90
41838;DHT22;27511;52.042;5.178;2023-03-01T05:06:42;2.70;99.90
41838;DHT22;27511;52.042;5.178;2023-03-01T05:09:08;2.70;99.90
41838;DHT22;27511;52.042;5.178;2023-03-01T05:11:33;2.70;99.90
41838;DHT22;27511;52.042;5.178;2023-03-01T05:14:01;2.80;99.90
41838;DHT22;27511;52.042;5.178;2023-03-01T05:16:27;2.70;99.90
41838;DHT22;27511;52.042;5.178;2023-03-01T05:18:52;2.70;99.90
41838;DHT22;27511;52.042;5.178;2023-03-01T05:21:18;2.70;99.90
41838;DHT22;27511;52.042;5.178;2023-03-01T05:23:44;2.70;99.90
41838;DHT22;27511;52.042;5.178;2023-03-01T05:26:09;2.70;99.90
41838;DHT22;27511;52.042;5.178;2023-03-01T05:28:35;2.70;99.90
41838;DHT22;27511;52.042;5.178;2023-03-01T05:31:00;2.60;99.90
41838;DHT22;27511;52.042;5.178;2023-03-01T05:33:26;2.70;99.90
41838;DHT22;27511;52.042;5.178;2023-03-01T05:35:52;2.70;99.90
41838;DHT22;27511;52.042;5.178;2023-03-01T05:38:19;2.70;99.90
41838;DHT22;27511;52.042;5.178;2023-03-01T05:40:45;2.60;99.90
41838;DHT22;27511;52.042;5.178;2023-03-01T05:43:11;2.50;99.90
41838;DHT22;27511;52.042;5.178;2023-03-01T05:45:37;2.50;99.90
41838;DHT22;27511;52.042;5.178;2023-03-01T05:48:03;2.60;99.90
41838;DHT22;27511;52.042;5.178;2023-03-01T05:50:32;2.70;99.90
41838;DHT22;27511;52.042;5.178;2023-03-01T05:52:59;2.80;99.90
41838;DHT22;27511;52.042;5.178;2023-03-01T05:55:24;2.80;99.90
41838;DHT22;27511;52.042;5.178;2023-03-01T05:57:50;2.80;99.90
41838;DHT22;27511;52.042;5.178;2023-03-01T06:00:17;2.70;99.90
41838;DHT22;27511;52.042;5.178;2023-03-01T06:02:43;2.70;99.90
41838;DHT22;27511;52.042;5.178;2023-03-01T06:05:09;2.70;99.90
41838;DHT22;27511;52.042;5.178;2023-03-01T06:07:35;2.70;99.90
41838;DHT22;27511;52.042;5.178;2023-03-01T06:10:01;2.70;99.90
41838;DHT22;27511;52.042;5.178;2023-03-01T06:12:29;2.60;99.90
41838;DHT22;27511;52.042;5.178;2023-03-01T06:14:55;2.70;99.90
41838;DHT22;27511;52.042;5.178;2023-03-01T06:17:20;2.70;99.90
41838;DHT22;27511;52.042;5.178;2023-03-01T06:19:46;2.60;99.90
41838;DHT22;27511;52.042;5.178;2023-03-01T06:22:12;2.60;99.90
41838;DHT22;27511;52.042;5.178;2023-03-01T06:24:38;2.70;99.90
41838;DHT22;27511;52.042;5.178;2023-03-01T06:27:03;2.60;99.90
41838;DHT22;27511;52.042;5.178;2023-03-01T06:29:29;2.60;99.90
41838;DHT22;27511;52.042;5.178;2023-03-01T06:31:54;2.70;99.90
41838;DHT22;27511;52.042;5.178;2023-03-01T06:34:20;2.60;99.90
41838;DHT22;27511;52.042;5.178;2023-03-01T06:36:46;2.70;99.90
41838;DHT22;27511;52.042;5.178;2023-03-01T06:39:12;2.60;99.90
41838;DHT22;27511;52.042;5.178;2023-03-01T06:41:37;2.60;99.90
41838;DHT22;27511;52.042;5.178;2023-03-01T06:44:03;2.60;99.90
41838;DHT22;27511;52.042;5.178;2023-03-01T06:46:28;2.70;99.90
41838;DHT22;27511;52.042;5.178;2023-03-01T06:48:54;2.70;99.90
41838;DHT22;27511;52.042;5.178;2023-03-01T06:51:19;2.60;99.90
41838;DHT22;27511;52.042;5.178;2023-03-01T06:53:45;2.60;99.90
41838;DHT22;27511;52.042;5.178;2023-03-01T06:56:11;2.70;99.90
41838;DHT22;27511;52.042;5.178;2023-03-01T06:58:36;2.70;99.90
41838;DHT22;27511;52.042;5.178;2023-03-01T07:01:05;2.80;99.90
41838;DHT22;27511;52.042;5.178;2023-03-01T07:03:30;2.80;99.90
41838;DHT22;27511;52.042;5.178;2023-03-01T07:05:56;2.90;99.90
41838;DHT22;27511;52.042;5.178;2023-03-01T07:08:21;2.80;99.90
41838;DHT22;27511;52.042;5.178;2023-03-01T07:10:47;2.80;99.90
41838;DHT22;27511;52.042;5.178;2023-03-01T07:13:12;2.90;99.90
41838;DHT22;27511;52.042;5.178;2023-03-01T07:15:39;2.90;99.90
41838;DHT22;27511;52.042;5.178;2023-03-01T07:18:05;3.00;99.90
41838;DHT22;27511;52.042;5.178;2023-03-01T07:20:30;3.00;99.90
41838;DHT22;27511;52.042;5.178;2023-03-01T07:22:56;3.00;99.90
41838;DHT22;27511;52.042;5.178;2023-03-01T07:25:23;3.00;99.90
41838;DHT22;27511;52.042;5.178;2023-03-01T07:27:50;3.00;99.90
41838;DHT22;27511;52.042;5.178;2023-03-01T07:30:16;3.10;99.90
41838;DHT22;27511;52.042;5.178;2023-03-01T07:32:41;3.10;99.90
41838;DHT22;27511;52.042;5.178;2023-03-01T07:35:07;3.20;99.90
41838;DHT22;27511;52.042;5.178;2023-03-01T07:37:32;3.20;99.90
41838;DHT22;27511;52.042;5.178;2023-03-01T07:39:58;3.20;99.90
41838;DHT22;27511;52.042;5.178;2023-03-01T07:42:23;3.30;99.90
41838;DHT22;27511;52.042;5.178;2023-03-01T07:44:49;3.40;99.90
41838;DHT22;27511;52.042;5.178;2023-03-01T07:47:14;3.50;99.90
41838;DHT22;27511;52.042;5.178;2023-03-01T07:49:40;3.50;99.90
41838;DHT22;27511;52.042;5.178;2023-03-01T07:52:05;3.60;99.90
41838;DHT22;27511;52.042;5.178;2023-03-01T07:54:31;3.60;99.90
41838;DHT22;27511;52.042;5.178;2023-03-01T07:56:56;3.70;99.90
41838;DHT22;27511;52.042;5.178;2023-03-01T07:59:22;3.80;99.90
41838;DHT22;27511;52.042;5.178;2023-03-01T08:01:54;3.90;99.90
41838;DHT22;27511;52.042;5.178;2023-03-01T08:04:19;4.00;99.90
41838;DHT22;27511;52.042;5.178;2023-03-01T08:06:45;4.00;99.90
41838;DHT22;27511;52.042;5.178;2023-03-01T08:09:10;4.10;99.90
41838;DHT22;27511;52.042;5.178;2023-03-01T08:11:36;4.20;99.90
41838;DHT22;27511;52.042;5.178;2023-03-01T08:14:01;4.20;99.90
41838;DHT22;27511;52.042;5.178;2023-03-01T08:16:27;4.30;99.90
41838;DHT22;27511;52.042;5.178;2023-03-01T08:18:52;4.30;99.90
41838;DHT22;27511;52.042;5.178;2023-03-01T08:21:19;4.40;99.90
41838;DHT22;27511;52.042;5.178;2023-03-01T08:23:45;4.50;99.90
41838;DHT22;27511;52.042;5.178;2023-03-01T08:26:15;4.60;99.90
41838;DHT22;27511;52.042;5.178;2023-03-01T08:28:40;4.70;99.90
41838;DHT22;27511;52.042;5.178;2023-03-01T08:31:40;4.70;99.90
41838;DHT22;27511;52.042;5.178;2023-03-01T08:33:59;4.80;99.90
41838;DHT22;27511;52.042;5.178;2023-03-01T08:36:26;4.90;99.90
41838;DHT22;27511;52.042;5.178;2023-03-01T08:38:51;4.90;99.90
41838;DHT22;27511;52.042;5.178;2023-03-01T08:41:17;5.00;99.90
41838;DHT22;27511;52.042;5.178;2023-03-01T08:43:42;5.10;99.90
41838;DHT22;27511;52.042;5.178;2023-03-01T08:46:08;5.10;99.90
41838;DHT22;27511;52.042;5.178;2023-03-01T08:48:33;5.20;99.90
41838;DHT22;27511;52.042;5.178;2023-03-01T08:51:09;5.20;99.90
41838;DHT22;27511;52.042;5.178;2023-03-01T08:53:35;5.20;99.90
41838;DHT22;27511;52.042;5.178;2023-03-01T08:56:00;5.20;99.90
41838;DHT22;27511;52.042;5.178;2023-03-01T08:58:28;5.30;99.90
41838;DHT22;27511;52.042;5.178;2023-03-01T09:00:53;5.30;99.90
41838;DHT22;27511;52.042;5.178;2023-03-01T09:03:19;5.30;99.90
41838;DHT22;27511;52.042;5.178;2023-03-01T09:05:44;5.30;99.90
41838;DHT22;27511;52.042;5.178;2023-03-01T09:08:11;5.50;99.90
41838;DHT22;27511;52.042;5.178;2023-03-01T09:10:39;5.60;99.90
41838;DHT22;27511;52.042;5.178;2023-03-01T09:13:05;5.70;99.90
41838;DHT22;27511;52.042;5.178;2023-03-01T09:15:30;5.70;99.90
41838;DHT22;27511;52.042;5.178;2023-03-01T09:17:55;5.90;99.90
41838;DHT22;27511;52.042;5.178;2023-03-01T09:20:21;5.90;99.90
41838;DHT22;27511;52.042;5.178;2023-03-01T09:22:46;5.90;99.90
41838;DHT22;27511;52.042;5.178;2023-03-01T09:25:12;6.00;99.90
41838;DHT22;27511;52.042;5.178;2023-03-01T09:27:37;6.00;99.90
41838;DHT22;27511;52.042;5.178;2023-03-01T09:30:03;6.00;99.90
41838;DHT22;27511;52.042;5.178;2023-03-01T09:32:30;6.00;99.90
41838;DHT22;27511;52.042;5.178;2023-03-01T09:34:55;6.20;99.90
41838;DHT22;27511;52.042;5.178;2023-03-01T09:37:30;6.20;99.90
41838;DHT22;27511;52.042;5.178;2023-03-01T09:39:55;6.30;99.90
41838;DHT22;27511;52.042;5.178;2023-03-01T09:42:21;6.30;99.90
41838;DHT22;27511;52.042;5.178;2023-03-01T09:47:24;6.40;99.90
41838;DHT22;27511;52.042;5.178;2023-03-01T09:49:58;6.40;99.90
41838;DHT22;27511;52.042;5.178;2023-03-01T09:54:58;6.50;99.90
41838;DHT22;27511;52.042;5.178;2023-03-01T09:57:33;6.60;99.90
41838;DHT22;27511;52.042;5.178;2023-03-01T10:05:34;6.70;99.90
41838;DHT22;27511;52.042;5.178;2023-03-01T10:10:38;6.70;99.90
41838;DHT22;27511;52.042;5.178;2023-03-01T10:13:14;6.90;99.90
41838;DHT22;27511;52.042;5.178;2023-03-01T10:15:43;7.10;99.90
41838;DHT22;27511;52.042;5.178;2023-03-01T10:18:16;7.00;99.90
41838;DHT22;27511;52.042;5.178;2023-03-01T10:20:49;7.20;99.90
41838;DHT22;27511;52.042;5.178;2023-03-01T10:23:17;7.30;99.90
41838;DHT22;27511;52.042;5.178;2023-03-01T10:30:42;7.50;99.90
41838;DHT22;27511;52.042;5.178;2023-03-01T10:33:17;7.50;99.90
41838;DHT22;27511;52.042;5.178;2023-03-01T10:35:44;7.60;99.90
41838;DHT22;27511;52.042;5.178;2023-03-01T10:38:11;7.50;99.90
41838;DHT22;27511;52.042;5.178;2023-03-01T10:40:49;7.60;99.90
41838;DHT22;27511;52.042;5.178;2023-03-01T10:43:15;7.60;99.90
41838;DHT22;27511;52.042;5.178;2023-03-01T10:45:40;7.60;99.90
41838;DHT22;27511;52.042;5.178;2023-03-01T10:48:11;7.70;99.90
41838;DHT22;27511;52.042;5.178;2023-03-01T10:50:38;7.70;99.90
41838;DHT22;27511;52.042;5.178;2023-03-01T10:53:05;7.80;99.90
41838;DHT22;27511;52.042;5.178;2023-03-01T10:55:41;7.90;99.90
41838;DHT22;27511;52.042;5.178;2023-03-01T10:58:20;8.10;99.90
41838;DHT22;27511;52.042;5.178;2023-03-01T11:00:50;8.20;99.90
41838;DHT22;27511;52.042;5.178;2023-03-01T11:05:50;8.30;99.90
41838;DHT22;27511;52.042;5.178;2023-03-01T11:08:25;8.30;99.90
41838;DHT22;27511;52.042;5.178;2023-03-01T11:11:00;8.30;99.90
41838;DHT22;27511;52.042;5.178;2023-03-01T11:13:28;8.20;99.90
41838;DHT22;27511;52.042;5.178;2023-03-01T11:16:05;8.30;99.90
41838;DHT22;27511;52.042;5.178;2023-03-01T11:18:31;8.30;99.90
41838;DHT22;27511;52.042;5.178;2023-03-01T11:20:57;8.20;99.90
41838;DHT22;27511;52.042;5.178;2023-03-01T11:23:23;8.30;99.90
41838;DHT22;27511;52.042;5.178;2023-03-01T11:25:51;8.30;99.90
41838;DHT22;27511;52.042;5.178;2023-03-01T11:28:19;8.30;99.90
41838;DHT22;27511;52.042;5.178;2023-03-01T11:31:28;8.40;99.90
41838;DHT22;27511;52.042;5.178;2023-03-01T11:38:40;8.70;99.90
41838;DHT22;27511;52.042;5.178;2023-03-01T11:41:07;8.70;99.90
41838;DHT22;27511;52.042;5.178;2023-03-01T11:43:35;8.60;99.90
41838;DHT22;27511;52.042;5.178;2023-03-01T11:46:08;8.70;99.90
41838;DHT22;27511;52.042;5.178;2023-03-01T11:51:12;8.90;99.90
41838;DHT22;27511;52.042;5.178;2023-03-01T11:53:48;9.10;99.90
41838;DHT22;27511;52.042;5.178;2023-03-01T11:56:29;9.30;99.90
41838;DHT22;27511;52.042;5.178;2023-03-01T11:59:08;9.50;99.90
41838;DHT22;27511;52.042;5.178;2023-03-01T12:14:55;9.80;99.90
41838;DHT22;27511;52.042;5.178;2023-03-01T12:20:05;10.00;99.90
41838;DHT22;27511;52.042;5.178;2023-03-01T12:22:43;9.90;99.90
41838;DHT22;27511;52.042;5.178;2023-03-01T12:25:27;9.90;99.90
41838;DHT22;27511;52.042;5.178;2023-03-01T12:38:07;10.10;99.90
41838;DHT22;27511;52.042;5.178;2023-03-01T12:40:42;10.00;99.90
41838;DHT22;27511;52.042;5.178;2023-03-01T12:50:50;10.60;99.90
41838;DHT22;27511;52.042;5.178;2023-03-01T12:53:26;10.80;99.90
41838;DHT22;27511;52.042;5.178;2023-03-01T12:55:54;11.10;99.90
41838;DHT22;27511;52.042;5.178;2023-03-01T12:58:27;11.60;99.90
41838;DHT22;27511;52.042;5.178;2023-03-01T13:01:00;12.30;99.90
41838;DHT22;27511;52.042;5.178;2023-03-01T13:11:15;14.60;99.90
41838;DHT22;27511;52.042;5.178;2023-03-01T13:13:41;14.80;99.90
41838;DHT22;27511;52.042;5.178;2023-03-01T13:18:50;14.90;99.90
41838;DHT22;27511;52.042;5.178;2023-03-01T13:21:30;15.00;99.90
41838;DHT22;27511;52.042;5.178;2023-03-01T13:23:56;15.00;99.90
41838;DHT22;27511;52.042;5.178;2023-03-01T13:26:22;15.10;99.90
41838;DHT22;27511;52.042;5.178;2023-03-01T13:28:48;15.20;99.90
41838;DHT22;27511;52.042;5.178;2023-03-01T13:36:10;15.20;99.90
41838;DHT22;27511;52.042;5.178;2023-03-01T13:41:11;15.40;99.90
41838;DHT22;27511;52.042;5.178;2023-03-01T13:43:38;15.60;99.90
41838;DHT22;27511;52.042;5.178;2023-03-01T13:46:08;16.00;99.90
41838;DHT22;27511;52.042;5.178;2023-03-01T13:48:34;16.40;99.90
41838;DHT22;27511;52.042;5.178;2023-03-01T13:51:04;16.90;99.90
41838;DHT22;27511;52.042;5.178;2023-03-01T13:53:31;17.40;99.90
41838;DHT22;27511;52.042;5.178;2023-03-01T13:56:00;17.80;99.90
41838;DHT22;27511;52.042;5.178;2023-03-01T13:58:28;18.30;99.90
41838;DHT22;27511;52.042;5.178;2023-03-01T14:00:57;18.60;99.90
41838;DHT22;27511;52.042;5.178;2023-03-01T14:03:23;19.00;99.90
41838;DHT22;27511;52.042;5.178;2023-03-01T14:08:27;19.10;99.90
41838;DHT22;27511;52.042;5.178;2023-03-01T14:13:31;19.40;99.90
41838;DHT22;27511;52.042;5.178;2023-03-01T14:18:51;18.90;99.90
41838;DHT22;27511;52.042;5.178;2023-03-01T14:21:20;18.50;99.90
41838;DHT22;27511;52.042;5.178;2023-03-01T14:23:45;18.00;99.90
41838;DHT22;27511;52.042;5.178;2023-03-01T14:26:12;17.50;99.90
41838;DHT22;27511;52.042;5.178;2023-03-01T14:28:37;17.10;99.90
41838;DHT22;27511;52.042;5.178;2023-03-01T14:31:29;16.80;99.90
41838;DHT22;27511;52.042;5.178;2023-03-01T14:33:56;16.60;99.90
41838;DHT22;27511;52.042;5.178;2023-03-01T14:36:26;16.40;99.90
41838;DHT22;27511;52.042;5.178;2023-03-01T14:38:51;16.40;99.90
41838;DHT22;27511;52.042;5.178;2023-03-01T14:41:21;16.60;99.90
41838;DHT22;27511;52.042;5.178;2023-03-01T14:43:49;16.60;99.90
41838;DHT22;27511;52.042;5.178;2023-03-01T14:49:23;16.50;99.90
41838;DHT22;27511;52.042;5.178;2023-03-01T14:51:57;16.30;99.90
41838;DHT22;27511;52.042;5.178;2023-03-01T14:54:28;16.10;99.90
41838;DHT22;27511;52.042;5.178;2023-03-01T14:56:58;15.90;99.90
41838;DHT22;27511;52.042;5.178;2023-03-01T14:59:24;15.90;99.90
41838;DHT22;27511;52.042;5.178;2023-03-01T15:01:50;16.60;99.90
41838;DHT22;27511;52.042;5.178;2023-03-01T15:04:16;17.80;99.90
41838;DHT22;27511;52.042;5.178;2023-03-01T15:06:43;18.70;99.90
41838;DHT22;27511;52.042;5.178;2023-03-01T15:09:15;19.20;99.90
41838;DHT22;27511;52.042;5.178;2023-03-01T15:11:42;19.00;99.90
41838;DHT22;27511;52.042;5.178;2023-03-01T15:17:26;17.70;99.90
41838;DHT22;27511;52.042;5.178;2023-03-01T15:19:54;17.00;99.90
41838;DHT22;27511;52.042;5.178;2023-03-01T15:22:19;16.60;99.90
41838;DHT22;27511;52.042;5.178;2023-03-01T15:24:46;16.50;99.90
41838;DHT22;27511;52.042;5.178;2023-03-01T15:27:14;15.90;99.90
41838;DHT22;27511;52.042;5.178;2023-03-01T15:29:40;15.50;99.90
41838;DHT22;27511;52.042;5.178;2023-03-01T15:34:47;14.20;99.90
41838;DHT22;27511;52.042;5.178;2023-03-01T15:39:57;13.30;99.90
41838;DHT22;27511;52.042;5.178;2023-03-01T15:47:34;12.30;99.90
41838;DHT22;27511;52.042;5.178;2023-03-01T15:50:01;12.10;99.90
41838;DHT22;27511;52.042;5.178;2023-03-01T15:52:34;11.90;99.90
41838;DHT22;27511;52.042;5.178;2023-03-01T15:55:28;11.60;99.90
41838;DHT22;27511;52.042;5.178;2023-03-01T15:57:57;11.50;99.90
41838;DHT22;27511;52.042;5.178;2023-03-01T16:00:25;11.40;99.90
41838;DHT22;27511;52.042;5.178;2023-03-01T16:02:51;11.40;99.90
41838;DHT22;27511;52.042;5.178;2023-03-01T16:05:38;11.20;99.90
41838;DHT22;27511;52.042;5.178;2023-03-01T16:08:03;11.20;99.90
41838;DHT22;27511;52.042;5.178;2023-03-01T16:10:29;11.00;99.90
41838;DHT22;27511;52.042;5.178;2023-03-01T16:12:55;11.10;99.90
41838;DHT22;27511;52.042;5.178;2023-03-01T16:15:31;10.90;99.90
41838;DHT22;27511;52.042;5.178;2023-03-01T16:17:56;10.80;99.90
41838;DHT22;27511;52.042;5.178;2023-03-01T16:20:30;10.80;99.90
41838;DHT22;27511;52.042;5.178;2023-03-01T16:26:09;10.70;99.90
41838;DHT22;27511;52.042;5.178;2023-03-01T16:28:47;10.40;99.90
41838;DHT22;27511;52.042;5.178;2023-03-01T16:31:16;10.40;99.90
41838;DHT22;27511;52.042;5.178;2023-03-01T16:33:57;10.40;99.90
41838;DHT22;27511;52.042;5.178;2023-03-01T16:36:46;10.50;99.90
41838;DHT22;27511;52.042;5.178;2023-03-01T16:39:20;10.40;99.90
41838;DHT22;27511;52.042;5.178;2023-03-01T16:41:53;10.50;99.90
41838;DHT22;27511;52.042;5.178;2023-03-01T16:44:21;10.50;99.90
41838;DHT22;27511;52.042;5.178;2023-03-01T16:46:52;10.50;99.90
41838;DHT22;27511;52.042;5.178;2023-03-01T16:49:17;10.30;99.90
41838;DHT22;27511;52.042;5.178;2023-03-01T16:51:43;10.20;99.90
41838;DHT22;27511;52.042;5.178;2023-03-01T16:54:09;10.20;99.90
41838;DHT22;27511;52.042;5.178;2023-03-01T16:56:40;10.20;99.90
41838;DHT22;27511;52.042;5.178;2023-03-01T16:59:06;10.10;99.90
41838;DHT22;27511;52.042;5.178;2023-03-01T17:04:13;10.10;99.90
41838;DHT22;27511;52.042;5.178;2023-03-01T17:06:41;10.10;99.90
41838;DHT22;27511;52.042;5.178;2023-03-01T17:09:27;10.00;99.90
41838;DHT22;27511;52.042;5.178;2023-03-01T17:11:53;10.00;99.90
41838;DHT22;27511;52.042;5.178;2023-03-01T17:14:19;10.00;99.90
41838;DHT22;27511;52.042;5.178;2023-03-01T17:16:45;9.90;99.90
41838;DHT22;27511;52.042;5.178;2023-03-01T17:19:10;10.00;99.90
41838;DHT22;27511;52.042;5.178;2023-03-01T17:21:36;9.90;99.90
41838;DHT22;27511;52.042;5.178;2023-03-01T17:24:05;9.70;99.90
41838;DHT22;27511;52.042;5.178;2023-03-01T17:35:17;9.50;99.90
41838;DHT22;27511;52.042;5.178;2023-03-01T17:37:45;9.50;99.90
41838;DHT22;27511;52.042;5.178;2023-03-01T17:40:11;9.30;99.90
41838;DHT22;27511;52.042;5.178;2023-03-01T17:42:37;9.10;99.90
41838;DHT22;27511;52.042;5.178;2023-03-01T17:45:03;9.20;99.90
41838;DHT22;27511;52.042;5.178;2023-03-01T17:47:28;9.00;99.90
41838;DHT22;27511;52.042;5.178;2023-03-01T17:49:56;9.10;99.90
41838;DHT22;27511;52.042;5.178;2023-03-01T17:52:22;9.10;99.90
41838;DHT22;27511;52.042;5.178;2023-03-01T17:54:48;9.10;99.90
41838;DHT22;27511;52.042;5.178;2023-03-01T17:57:13;9.10;99.90
41838;DHT22;27511;52.042;5.178;2023-03-01T17:59:39;9.00;99.90
41838;DHT22;27511;52.042;5.178;2023-03-01T18:02:04;9.00;99.90
41838;DHT22;27511;52.042;5.178;2023-03-01T18:04:30;8.90;99.90
41838;DHT22;27511;52.042;5.178;2023-03-01T18:06:56;8.80;99.90
41838;DHT22;27511;52.042;5.178;2023-03-01T18:09:25;8.90;99.90
41838;DHT22;27511;52.042;5.178;2023-03-01T18:11:50;8.90;99.90
41838;DHT22;27511;52.042;5.178;2023-03-01T18:14:16;8.90;99.90
41838;DHT22;27511;52.042;5.178;2023-03-01T18:16:42;8.90;99.90
41838;DHT22;27511;52.042;5.178;2023-03-01T18:19:09;8.80;99.90
41838;DHT22;27511;52.042;5.178;2023-03-01T18:21:35;8.80;99.90
41838;DHT22;27511;52.042;5.178;2023-03-01T18:24:00;8.70;99.90
41838;DHT22;27511;52.042;5.178;2023-03-01T18:26:26;8.60;99.90
41838;DHT22;27511;52.042;5.178;2023-03-01T18:28:54;8.50;99.90
41838;DHT22;27511;52.042;5.178;2023-03-01T18:31:22;8.50;99.90
41838;DHT22;27511;52.042;5.178;2023-03-01T18:33:49;8.50;99.90
41838;DHT22;27511;52.042;5.178;2023-03-01T18:36:22;8.50;99.90
41838;DHT22;27511;52.042;5.178;2023-03-01T18:38:48;8.30;99.90
41838;DHT22;27511;52.042;5.178;2023-03-01T18:41:14;8.30;99.90